createdAt,value
2017-09-14T00:01:07.207Z,13.03
2017-09-14T00:03:40.282Z,13.12
2017-09-14T00:06:09.865Z,13.00
2017-09-14T00:08:39.565Z,12.97
2017-09-14T00:11:13.118Z,13.07
2017-09-14T00:13:42.537Z,13.03
2017-09-14T00:16:13.206Z,13.01
2017-09-14T00:18:46.152Z,13.07
2017-09-14T00:21:16.338Z,13.09
2017-09-14T00:23:47.258Z,13.01
2017-09-14T00:26:16.901Z,12.98
2017-09-14T00:28:48.061Z,12.99
2017-09-14T00:31:18.119Z,12.89
2017-09-14T00:33:47.824Z,12.83
2017-09-14T00:36:17.956Z,12.89
2017-09-14T00:38:59.653Z,12.91
2017-09-14T00:41:29.127Z,12.89
2017-09-14T00:44:02.711Z,12.86
2017-09-14T00:46:34.437Z,12.87
2017-09-14T00:49:03.920Z,12.79
2017-09-14T00:51:35.437Z,12.83
2017-09-14T00:54:05.847Z,12.82
2017-09-14T00:56:37.032Z,12.82
2017-09-14T00:59:07.027Z,12.78
2017-09-14T01:01:39.683Z,12.76
2017-09-14T01:04:09.140Z,12.70
2017-09-14T01:06:38.905Z,12.70
2017-09-14T01:09:08.637Z,12.73
2017-09-14T01:11:39.794Z,12.72
2017-09-14T01:14:11.601Z,12.74
2017-09-14T01:16:42.932Z,12.73
2017-09-14T01:19:12.588Z,12.68
2017-09-14T01:21:42.971Z,12.67
2017-09-14T01:24:13.367Z,12.55
2017-09-14T01:26:43.587Z,12.58
2017-09-14T01:29:13.302Z,12.66
2017-09-14T01:31:43.055Z,12.64
2017-09-14T01:34:12.647Z,12.64
2017-09-14T01:36:42.647Z,12.57
2017-09-14T01:39:12.423Z,12.64
2017-09-14T01:41:41.939Z,12.65
2017-09-14T01:44:12.047Z,12.62
2017-09-14T01:46:41.462Z,12.59
2017-09-14T01:49:11.026Z,12.65
2017-09-14T01:51:41.044Z,12.68
2017-09-14T01:54:11.324Z,12.65
2017-09-14T01:56:40.695Z,12.69
2017-09-14T01:59:10.577Z,12.68
2017-09-14T02:01:40.116Z,12.65
2017-09-14T02:04:09.599Z,12.63
2017-09-14T02:06:39.471Z,12.73
2017-09-14T02:09:09.123Z,12.70
2017-09-14T02:11:39.086Z,12.72
2017-09-14T02:14:09.112Z,12.73
2017-09-14T02:16:38.944Z,12.66
2017-09-14T02:19:09.138Z,12.63
2017-09-14T02:21:38.915Z,12.63
2017-09-14T02:24:08.501Z,12.56
2017-09-14T02:26:39.356Z,12.51
2017-09-14T02:29:09.036Z,12.55
2017-09-14T02:31:38.929Z,12.53
2017-09-14T02:34:08.829Z,12.60
2017-09-14T02:36:38.452Z,12.53
2017-09-14T02:39:08.405Z,12.56
2017-09-14T02:41:38.379Z,12.57
2017-09-14T02:44:07.932Z,12.53
2017-09-14T02:46:38.924Z,12.63
2017-09-14T02:49:09.139Z,12.56
2017-09-14T02:51:38.545Z,12.59
2017-09-14T02:54:08.171Z,12.63
2017-09-14T02:56:38.807Z,12.62
2017-09-14T02:59:08.753Z,12.66
2017-09-14T03:01:38.607Z,12.68
2017-09-14T03:04:08.144Z,12.59
2017-09-14T03:06:38.139Z,12.62
2017-09-14T03:09:08.104Z,12.66
2017-09-14T03:11:38.755Z,12.66
2017-09-14T03:14:08.504Z,12.62
2017-09-14T03:16:38.551Z,12.60
2017-09-14T03:19:08.025Z,12.57
2017-09-14T03:21:38.115Z,12.60
2017-09-14T03:24:08.211Z,12.54
2017-09-14T03:26:39.426Z,12.52
2017-09-14T03:29:10.072Z,12.54
2017-09-14T03:31:39.553Z,12.55
2017-09-14T03:34:09.557Z,12.55
2017-09-14T03:36:38.996Z,12.52
2017-09-14T03:39:08.344Z,12.42
2017-09-14T03:41:41.392Z,12.47
2017-09-14T03:44:10.800Z,12.50
2017-09-14T03:46:40.495Z,12.52
2017-09-14T03:49:10.140Z,12.53
2017-09-14T03:51:39.504Z,12.48
2017-09-14T03:54:09.072Z,12.51
2017-09-14T03:56:40.189Z,12.44
2017-09-14T03:59:09.456Z,12.47
2017-09-14T04:01:39.779Z,12.47
2017-09-14T04:04:09.367Z,12.47
2017-09-14T04:06:39.299Z,12.44
2017-09-14T04:09:08.885Z,12.46
2017-09-14T04:11:40.687Z,12.37
2017-09-14T04:14:09.983Z,12.38
2017-09-14T04:16:39.214Z,12.34
2017-09-14T04:19:08.869Z,12.34
2017-09-14T04:21:39.464Z,12.34
2017-09-14T04:24:09.211Z,12.31
2017-09-14T04:26:39.976Z,12.29
2017-09-14T04:29:09.356Z,12.30
2017-09-14T04:31:42.487Z,12.25
2017-09-14T04:34:12.040Z,12.32
2017-09-14T04:36:41.391Z,12.28
2017-09-14T04:39:11.016Z,12.29
2017-09-14T04:41:41.075Z,12.27
2017-09-14T04:44:10.444Z,12.29
2017-09-14T04:46:39.886Z,12.26
2017-09-14T04:49:09.568Z,12.24
2017-09-14T04:51:39.456Z,12.26
2017-09-14T04:54:08.899Z,12.13
2017-09-14T04:56:39.408Z,12.15
2017-09-14T04:59:08.772Z,12.16
2017-09-14T05:01:39.188Z,12.19
2017-09-14T05:04:08.873Z,12.24
2017-09-14T05:06:39.169Z,12.24
2017-09-14T05:09:08.421Z,12.22
2017-09-14T05:11:41.146Z,12.25
2017-09-14T05:14:10.668Z,12.21
2017-09-14T05:16:40.483Z,12.21
2017-09-14T05:19:10.364Z,12.20
2017-09-14T05:23:04.697Z,12.21
2017-09-14T05:25:37.873Z,12.18
2017-09-14T05:28:07.948Z,12.16
2017-09-14T05:30:44.240Z,12.22
2017-09-14T05:33:14.002Z,12.11
2017-09-14T05:35:43.847Z,12.12
2017-09-14T05:38:13.116Z,12.18
2017-09-14T05:40:42.759Z,12.21
2017-09-14T05:43:12.024Z,12.23
2017-09-14T05:45:41.181Z,12.24
2017-09-14T05:48:13.300Z,12.20
2017-09-14T05:50:42.609Z,12.22
2017-09-14T05:53:13.296Z,12.22
2017-09-14T05:55:43.700Z,12.24
2017-09-14T05:58:21.349Z,12.25
2017-09-14T06:00:55.119Z,12.25
2017-09-14T06:03:29.944Z,12.24
2017-09-14T06:06:03.959Z,12.31
2017-09-14T06:08:34.223Z,12.24
2017-09-14T06:11:17.223Z,12.23
2017-09-14T06:14:01.383Z,12.29
2017-09-14T06:16:31.144Z,12.34
2017-09-14T06:19:05.868Z,12.32
2017-09-14T06:21:38.663Z,12.33
2017-09-14T06:24:08.423Z,12.31
2017-09-14T06:26:37.629Z,12.37
2017-09-14T06:29:07.319Z,12.40
2017-09-14T06:31:38.180Z,12.37
2017-09-14T06:34:07.437Z,12.35
2017-09-14T06:36:38.791Z,12.35
2017-09-14T06:39:08.408Z,12.40
2017-09-14T06:41:39.631Z,12.41
2017-09-14T06:44:09.062Z,12.38
2017-09-14T06:46:38.860Z,12.41
2017-09-14T06:49:08.860Z,12.47
2017-09-14T06:51:38.807Z,12.45
2017-09-14T06:54:08.419Z,12.47
2017-09-14T06:56:39.475Z,12.44
2017-09-14T06:59:09.435Z,12.46
2017-09-14T07:01:39.050Z,12.56
2017-09-14T07:04:08.597Z,12.72
2017-09-14T07:06:38.900Z,12.68
2017-09-14T07:09:08.415Z,12.61
2017-09-14T07:11:39.359Z,12.68
2017-09-14T07:14:08.883Z,12.62
2017-09-14T07:16:38.551Z,12.58
2017-09-14T07:19:08.207Z,12.64
2017-09-14T07:21:39.530Z,12.52
2017-09-14T07:24:08.905Z,12.54
2017-09-14T07:26:39.908Z,12.58
2017-09-14T07:29:09.886Z,12.53
2017-09-14T07:31:39.451Z,12.58
2017-09-14T07:34:09.115Z,12.62
2017-09-14T07:36:39.308Z,12.62
2017-09-14T07:39:08.811Z,12.63
2017-09-14T07:41:38.723Z,12.69
2017-09-14T07:44:08.598Z,12.74
2017-09-14T07:46:38.339Z,12.76
2017-09-14T07:49:07.896Z,12.95
2017-09-14T07:51:40.683Z,12.96
2017-09-14T07:54:10.116Z,13.00
2017-09-14T07:56:40.416Z,13.05
2017-09-14T07:59:10.291Z,13.14
2017-09-14T08:01:48.147Z,13.14
2017-09-14T08:04:20.173Z,13.07
2017-09-14T08:06:50.851Z,13.02
2017-09-14T08:09:21.211Z,12.95
2017-09-14T08:12:03.107Z,12.88
2017-09-14T08:14:37.612Z,12.91
2017-09-14T08:17:07.548Z,12.93
2017-09-14T08:19:37.972Z,12.98
2017-09-14T08:22:09.419Z,12.89
2017-09-14T08:24:40.259Z,12.90
2017-09-14T08:27:11.354Z,12.91
2017-09-14T08:29:42.237Z,12.90
2017-09-14T08:32:16.068Z,12.82
2017-09-14T08:34:48.383Z,12.77
2017-09-14T08:37:19.364Z,12.73
2017-09-14T08:39:51.165Z,12.60
2017-09-14T08:42:21.816Z,12.66
2017-09-14T08:44:52.510Z,12.57
2017-09-14T08:47:22.603Z,12.55
2017-09-14T08:49:52.311Z,12.49
2017-09-14T08:52:25.346Z,12.49
2017-09-14T08:54:57.465Z,12.53
2017-09-14T08:57:29.503Z,12.44
2017-09-14T08:59:59.739Z,12.51
2017-09-14T09:02:31.909Z,12.51
2017-09-14T09:05:01.993Z,12.52
2017-09-14T09:07:31.710Z,12.40
2017-09-14T09:10:01.757Z,12.44
2017-09-14T09:12:32.578Z,12.44
2017-09-14T09:15:02.648Z,12.42
2017-09-14T09:17:36.014Z,12.41
2017-09-14T09:20:05.276Z,12.40
2017-09-14T09:22:35.916Z,12.45
2017-09-14T09:25:07.956Z,12.35
2017-09-14T09:27:47.325Z,12.37
2017-09-14T09:30:22.423Z,12.39
2017-09-14T09:32:54.895Z,12.38
2017-09-14T09:35:40.955Z,12.31
2017-09-14T09:38:12.481Z,12.31
2017-09-14T09:40:46.140Z,12.22
2017-09-14T09:43:19.860Z,12.17
2017-09-14T09:45:50.618Z,12.27
2017-09-14T09:48:23.508Z,12.25
2017-09-14T09:51:16.300Z,12.30
2017-09-14T09:53:46.203Z,12.35
2017-09-14T09:56:15.835Z,12.36
2017-09-14T09:58:45.502Z,12.47
2017-09-14T10:01:19.465Z,12.42
2017-09-14T10:03:48.951Z,12.41
2017-09-14T10:06:18.251Z,12.43
2017-09-14T10:08:50.976Z,12.35
2017-09-14T10:11:20.565Z,12.33
2017-09-14T10:13:49.771Z,12.29
2017-09-14T10:16:19.519Z,12.28
2017-09-14T10:19:10.791Z,12.27
2017-09-14T10:21:41.396Z,12.27
2017-09-14T10:24:10.691Z,12.31
2017-09-14T10:26:42.112Z,12.35
2017-09-14T10:29:11.651Z,12.35
2017-09-14T10:31:41.172Z,12.39
2017-09-14T10:34:11.976Z,12.34
2017-09-14T10:36:41.438Z,12.29
2017-09-14T10:39:11.082Z,12.35
2017-09-14T10:41:42.156Z,12.32
2017-09-14T10:44:11.930Z,12.38
2017-09-14T10:46:51.151Z,12.41
2017-09-14T10:49:22.553Z,12.44
2017-09-14T10:51:53.345Z,12.45
2017-09-14T10:54:26.148Z,12.41
2017-09-14T10:56:59.423Z,12.62
2017-09-14T10:59:31.445Z,12.71
2017-09-14T11:02:04.792Z,12.70
2017-09-14T11:04:41.306Z,12.85
2017-09-14T11:07:21.225Z,12.93
2017-09-14T11:09:53.607Z,13.09
2017-09-14T11:12:24.591Z,13.10
2017-09-14T11:14:57.116Z,13.34
2017-09-14T11:17:26.645Z,13.46
2017-09-14T11:19:55.900Z,13.34
2017-09-14T11:22:25.493Z,13.24
2017-09-14T11:24:54.707Z,13.18
2017-09-14T11:27:23.946Z,13.33
2017-09-14T11:29:53.533Z,13.30
2017-09-14T11:32:24.557Z,13.36
2017-09-14T11:34:54.126Z,13.43
2017-09-14T11:37:23.832Z,13.43
2017-09-14T11:39:53.504Z,13.33
2017-09-14T11:42:22.779Z,13.24
2017-09-14T11:44:52.432Z,13.26
2017-09-14T11:47:21.731Z,13.29
2017-09-14T11:49:51.631Z,13.56
2017-09-14T11:52:21.287Z,13.76
2017-09-14T11:54:50.587Z,13.79
2017-09-14T11:57:19.974Z,13.67
2017-09-14T11:59:50.706Z,13.68
2017-09-14T12:02:20.125Z,13.52
2017-09-14T12:04:49.574Z,13.52
2017-09-14T12:07:19.056Z,13.32
2017-09-14T12:09:48.492Z,13.18
2017-09-14T12:12:18.036Z,13.08
2017-09-14T12:14:47.587Z,13.18
2017-09-14T12:20:07.633Z,13.59
2017-09-14T12:22:38.179Z,13.81
2017-09-14T12:25:07.479Z,13.93
2017-09-14T12:27:39.856Z,13.73
2017-09-14T12:30:09.308Z,13.59
2017-09-14T12:32:39.004Z,13.79
2017-09-14T12:35:09.031Z,14.06
2017-09-14T12:37:39.147Z,14.67
2017-09-14T12:40:08.667Z,14.74
2017-09-14T12:42:38.599Z,14.84
2017-09-14T12:45:08.284Z,15.04
2017-09-14T12:47:39.463Z,14.79
2017-09-14T12:50:09.420Z,14.57
2017-09-14T12:52:39.924Z,14.78
2017-09-14T12:55:09.543Z,14.89
2017-09-14T12:57:39.487Z,14.80
2017-09-14T13:00:09.086Z,15.10
2017-09-14T13:02:39.848Z,14.82
2017-09-14T13:05:10.287Z,14.81
2017-09-14T13:07:39.812Z,14.46
2017-09-14T13:10:18.048Z,14.31
2017-09-14T13:12:47.560Z,14.29
2017-09-14T13:15:18.744Z,14.33
2017-09-14T13:17:48.023Z,14.28
2017-09-14T13:20:17.696Z,14.49
2017-09-14T13:22:46.908Z,14.62
2017-09-14T13:25:16.123Z,14.72
2017-09-14T13:27:49.826Z,14.55
2017-09-14T13:30:19.679Z,14.58
2017-09-14T13:32:49.280Z,14.35
2017-09-14T13:35:18.503Z,14.38
2017-09-14T13:37:47.995Z,14.55
2017-09-14T13:40:18.066Z,14.54
2017-09-14T13:42:47.564Z,14.55
2017-09-14T13:45:17.030Z,14.49
2017-09-14T13:47:46.543Z,14.47
2017-09-14T13:50:16.045Z,14.70
2017-09-14T13:52:45.521Z,15.02
2017-09-14T13:55:15.218Z,15.02
2017-09-14T13:57:44.435Z,14.88
2017-09-14T14:00:14.014Z,14.88
2017-09-14T14:02:43.613Z,14.72
2017-09-14T14:05:12.911Z,14.52
2017-09-14T14:07:42.112Z,14.27
2017-09-14T14:10:12.020Z,14.41
2017-09-14T14:12:41.320Z,14.55
2017-09-14T14:15:10.892Z,14.61
2017-09-14T14:17:40.411Z,14.67
2017-09-14T14:20:09.656Z,14.66
2017-09-14T14:22:38.887Z,14.79
2017-09-14T14:25:08.447Z,14.81
2017-09-14T14:27:37.619Z,14.76
2017-09-14T14:30:06.889Z,14.94
2017-09-14T14:32:36.455Z,14.86
2017-09-14T14:35:06.540Z,15.02
2017-09-14T14:37:36.939Z,15.28
2017-09-14T14:40:06.605Z,15.46
2017-09-14T14:42:37.824Z,15.43
2017-09-14T14:45:07.946Z,15.29
2017-09-14T14:47:39.064Z,15.18
2017-09-14T14:50:08.280Z,14.97
2017-09-14T14:52:38.476Z,14.90
2017-09-14T14:55:08.104Z,14.88
2017-09-14T14:57:38.836Z,14.72
2017-09-14T15:00:09.180Z,14.69
2017-09-14T15:02:39.570Z,14.57
2017-09-14T15:05:08.769Z,14.52
2017-09-14T15:07:39.281Z,14.54
2017-09-14T15:10:09.594Z,14.61
2017-09-14T15:12:39.284Z,14.60
2017-09-14T15:15:08.624Z,14.54
2017-09-14T15:17:39.536Z,14.41
2017-09-14T15:20:08.820Z,14.22
2017-09-14T15:22:39.263Z,13.98
2017-09-14T15:25:08.797Z,13.11
2017-09-14T15:27:39.519Z,12.80
2017-09-14T15:30:08.760Z,12.67
2017-09-14T15:32:38.837Z,12.51
2017-09-14T15:35:08.093Z,12.18
2017-09-14T15:37:42.836Z,12.08
2017-09-14T15:40:16.387Z,11.57
2017-09-14T15:42:51.044Z,11.95
2017-09-14T15:45:40.801Z,11.76
2017-09-14T15:48:14.252Z,11.72
2017-09-14T15:50:48.735Z,11.71
2017-09-14T15:53:18.011Z,11.90
2017-09-14T15:55:47.288Z,11.97
2017-09-14T15:58:16.804Z,12.19
2017-09-14T16:00:46.316Z,12.09
2017-09-14T16:03:15.729Z,12.16
2017-09-14T16:05:45.354Z,12.14
2017-09-14T16:08:14.992Z,12.17
2017-09-14T16:10:44.339Z,12.25
2017-09-14T16:13:13.811Z,12.18
2017-09-14T16:15:43.066Z,12.20
2017-09-14T16:18:12.599Z,12.03
2017-09-14T16:20:42.123Z,11.88
2017-09-14T16:23:11.420Z,12.00
2017-09-14T16:25:40.757Z,12.02
2017-09-14T16:28:10.364Z,11.85
2017-09-14T16:30:39.738Z,11.76
2017-09-14T16:33:10.125Z,11.70
2017-09-14T16:35:40.280Z,11.78
2017-09-14T16:38:09.551Z,11.70
2017-09-14T16:40:39.050Z,11.69
2017-09-14T16:43:08.949Z,11.73
2017-09-14T16:45:38.784Z,11.79
2017-09-14T16:48:08.184Z,11.76
2017-09-14T16:50:39.550Z,11.80
2017-09-14T16:53:08.923Z,11.72
2017-09-14T16:55:39.594Z,11.81
2017-09-14T16:58:09.445Z,11.77
2017-09-14T17:00:39.325Z,11.66
2017-09-14T17:03:08.640Z,11.66
2017-09-14T17:05:39.344Z,11.70
2017-09-14T17:08:09.123Z,11.65
2017-09-14T17:10:39.113Z,11.59
2017-09-14T17:13:09.107Z,11.64
2017-09-14T17:15:38.704Z,11.61
2017-09-14T17:18:08.242Z,11.54
2017-09-14T17:20:38.872Z,11.54
2017-09-14T17:23:08.460Z,11.50
2017-09-14T17:25:38.535Z,11.61
2017-09-14T17:28:08.279Z,11.55
2017-09-14T17:30:39.224Z,11.56
2017-09-14T17:33:08.701Z,11.58
2017-09-14T17:35:39.244Z,11.44
2017-09-14T17:38:08.678Z,11.50
2017-09-14T17:40:39.473Z,11.52
2017-09-14T17:43:09.644Z,11.44
2017-09-14T17:45:39.361Z,11.37
2017-09-14T17:48:10.080Z,11.39
2017-09-14T17:50:39.773Z,11.34
2017-09-14T17:53:10.486Z,11.32
2017-09-14T17:55:39.694Z,11.21
2017-09-14T17:58:10.524Z,11.14
2017-09-14T18:00:39.847Z,11.07
2017-09-14T18:03:09.148Z,10.95
2017-09-14T18:05:40.476Z,11.02
2017-09-14T18:08:09.923Z,11.09
2017-09-14T18:10:39.172Z,11.00
2017-09-14T18:13:08.939Z,11.04
2017-09-14T18:15:52.783Z,11.04
2017-09-14T18:18:32.875Z,11.06
2017-09-14T18:21:06.299Z,11.04
2017-09-14T18:23:37.235Z,10.96
2017-09-14T18:26:07.209Z,10.94
2017-09-14T18:28:38.435Z,10.96
2017-09-14T18:31:07.977Z,10.88
2017-09-14T18:33:38.152Z,10.88
2017-09-14T18:36:07.327Z,10.90
2017-09-14T18:38:39.253Z,10.77
2017-09-14T18:41:08.875Z,10.78
2017-09-14T18:43:38.430Z,10.72
2017-09-14T18:46:07.943Z,10.73
2017-09-14T18:48:40.519Z,10.71
2017-09-14T18:51:10.420Z,10.79
2017-09-14T18:53:39.712Z,10.70
2017-09-14T18:56:08.923Z,10.70
2017-09-14T18:58:38.936Z,10.74
2017-09-14T19:01:08.240Z,10.76
2017-09-14T19:03:38.666Z,10.72
2017-09-14T19:06:08.228Z,10.62
2017-09-14T19:08:39.202Z,10.69
2017-09-14T19:11:08.440Z,10.59
2017-09-14T19:13:38.889Z,10.65
2017-09-14T19:16:08.095Z,10.55
2017-09-14T19:18:38.676Z,10.59
2017-09-14T19:21:08.304Z,10.60
2017-09-14T19:23:38.052Z,10.60
2017-09-14T19:26:07.680Z,10.57
2017-09-14T19:28:37.392Z,10.54
2017-09-14T19:31:06.623Z,10.55
2017-09-14T19:33:36.031Z,10.51
2017-09-14T19:36:05.888Z,10.59
2017-09-14T19:38:37.724Z,10.56
2017-09-14T19:41:07.890Z,10.54
2017-09-14T19:44:39.664Z,10.48
2017-09-14T19:47:09.021Z,10.57
2017-09-14T19:49:38.771Z,10.39
2017-09-14T19:52:08.400Z,10.48
2017-09-14T19:54:38.828Z,10.42
2017-09-14T19:57:08.794Z,10.44
2017-09-14T19:59:38.712Z,10.47
2017-09-14T20:02:08.661Z,10.45
2017-09-14T20:04:38.979Z,10.41
2017-09-14T20:07:09.933Z,10.51
2017-09-14T20:09:39.180Z,10.44
2017-09-14T20:12:08.969Z,10.45
2017-09-14T20:14:38.432Z,10.49
2017-09-14T20:17:07.897Z,10.46
2017-09-14T20:19:38.840Z,10.48
2017-09-14T20:22:08.163Z,10.42
2017-09-14T20:24:39.187Z,10.40
2017-09-14T20:27:10.023Z,10.44
2017-09-14T20:29:43.689Z,10.51
2017-09-14T20:32:14.752Z,10.50
2017-09-14T20:34:46.223Z,10.55
2017-09-14T20:37:16.307Z,10.60
2017-09-14T20:39:47.164Z,10.57
2017-09-14T20:42:19.849Z,10.56
2017-09-14T20:44:49.508Z,10.57
2017-09-14T20:47:31.823Z,10.56
2017-09-14T20:50:01.200Z,10.57
2017-09-14T20:52:30.529Z,10.54
2017-09-14T20:55:00.424Z,10.56
2017-09-14T20:57:29.712Z,10.54
2017-09-14T20:59:58.935Z,10.54
2017-09-14T21:02:28.503Z,10.58
2017-09-14T21:04:57.723Z,10.54
2017-09-14T21:07:26.942Z,10.55
2017-09-14T21:09:57.157Z,10.54
2017-09-14T21:12:26.344Z,10.47
2017-09-14T21:14:55.772Z,10.45
2017-09-14T21:17:25.302Z,10.48
2017-09-14T21:19:54.615Z,10.58
2017-09-14T21:22:23.979Z,10.56
2017-09-14T21:24:53.587Z,10.57
2017-09-14T21:27:23.211Z,10.58
2017-09-14T21:29:52.580Z,10.55
2017-09-14T21:32:22.535Z,10.56
2017-09-14T21:34:51.952Z,10.63
2017-09-14T21:37:21.147Z,10.60
2017-09-14T21:39:50.849Z,10.63
2017-09-14T21:42:20.124Z,10.61
2017-09-14T21:44:49.467Z,10.60
2017-09-14T21:47:19.108Z,10.60
2017-09-14T21:49:48.419Z,10.58
2017-09-14T21:52:17.664Z,10.67
2017-09-14T21:54:47.464Z,10.65
2017-09-14T21:57:16.757Z,10.79
2017-09-14T21:59:45.981Z,10.77
2017-09-14T22:02:15.584Z,10.75
2017-09-14T22:04:44.819Z,10.69
2017-09-14T22:07:17.746Z,10.77
2017-09-14T22:09:47.427Z,10.67
2017-09-14T22:12:16.696Z,10.69
2017-09-14T22:14:45.905Z,10.72
2017-09-14T22:17:15.687Z,10.75
2017-09-14T22:19:45.530Z,10.76
2017-09-14T22:22:14.802Z,10.77
2017-09-14T22:24:44.841Z,10.76
2017-09-14T22:27:14.130Z,10.78
2017-09-14T22:29:43.328Z,10.77
2017-09-14T22:32:12.944Z,10.82
2017-09-14T22:34:42.111Z,10.80
2017-09-14T22:37:11.779Z,10.83
2017-09-14T22:39:41.579Z,10.86
2017-09-14T22:42:11.192Z,10.87
2017-09-14T22:44:40.611Z,10.89
2017-09-14T22:47:10.457Z,10.92
2017-09-14T22:49:39.912Z,10.91
2017-09-14T22:52:09.392Z,10.91
2017-09-14T22:54:39.307Z,10.98
2017-09-14T22:57:08.812Z,10.92
2017-09-14T22:59:39.155Z,10.92
2017-09-14T23:02:09.152Z,10.88
2017-09-14T23:04:39.788Z,10.88
2017-09-14T23:07:09.071Z,10.89
2017-09-14T23:09:40.833Z,10.95
2017-09-14T23:12:10.828Z,10.92
2017-09-14T23:14:40.168Z,10.91
2017-09-14T23:17:10.157Z,10.89
2017-09-14T23:19:39.784Z,10.85
2017-09-14T23:22:09.578Z,10.85
2017-09-14T23:24:39.366Z,10.90
2017-09-14T23:27:08.887Z,10.91
2017-09-14T23:29:39.387Z,10.89
2017-09-14T23:32:09.340Z,10.92
2017-09-14T23:34:38.812Z,10.87
2017-09-14T23:37:08.957Z,10.93
2017-09-14T23:39:39.584Z,10.91
2017-09-14T23:42:08.920Z,10.96
2017-09-14T23:44:38.867Z,10.94
2017-09-14T23:47:08.676Z,10.97
2017-09-14T23:49:38.548Z,10.94
2017-09-14T23:52:08.342Z,10.94
2017-09-14T23:54:38.832Z,10.85
2017-09-14T23:57:11.219Z,10.84
2017-09-14T23:59:41.076Z,10.93
